Honolulu, HI

2:09 PM HST on August 28, 2014 (GMT -1000)
Wheeler Army Air Field | Change Station
CLOSE
Current Station
Airport
Location: Wheeler AAF,
Elevation: 837 ft
Nearby Weather Stations
Active Advisory: High Surf Advisory

Elev 837 ft 21.48 °N, 158.04 °W | Updated 11 minutes ago

Partly Cloudy
Partly Cloudy
85 °F
Feels Like 87 °F
N
14
Wind Variable Wind from NNE
Gusts 21 mph

Today
High -- | Low -- °F
--% Chance of Precip.
Yesterday
High -- | Low -- °F
Precip. -- in
6:13 AM 6:50 PM
Waxing Crescent, 10% visible
Pressure 29.85 in
Visibility 10.0 miles
Clouds Few 4000 ft
Heat Index 87 °F
Dew Point 66 °F
Humidity 52%
Rainfall 0.00 in
Snow Depth Not available.
UV 10 out of 12
Pollen Not available.
PM2.5 Good
Flu Activity Not available.
METAR PHHI 282358Z AUTO 03012G18KT 10SM FEW040 30/19 A2988 RMK AO2 SLP107 T02950187 10295 20240 56022 $

More Conditions Fewer Conditions

Pressure 29.85 in
Visibility 10.0 miles
Clouds Few 4000 ft
Heat Index 87 °F
Dew Point 66 °F
Humidity 52%
Rainfall 0.00 in
Snow Depth Not available.
UV 10 out of 12
Pollen Not available.
PM2.5 Good
Flu Activity Not available.
METAR PHHI 282358Z AUTO 03012G18KT 10SM FEW040 30/19 A2988 RMK AO2 SLP107 T02950187 10295 20240 56022 $

More Conditions Fewer Conditions

10-Day Weather Forecast

Almanac

Astronomy

Aug. 28, 2014 Rise Set
Actual Time 6:13 AM HST 6:50 PM HST
Civil Twilight 5:51 AM HST 7:13 PM HST
Nautical Twilight 5:24 AM HST 7:39 PM HST
Astronomical Twilight 4:57 AM HST 8:06 PM HST
Moon 8:49 AM HST (8/28) 8:51 PM HST (8/28)
Length of Visible Light 13h 22m
Length of Day
12h 37m
Tomorrow will be 1m 10s shorter.
Waxing Crescent, 10% of the Moon is Illuminated
Today
Waxing Crescent
Sep 2
First Quarter
Sep 8
Full
Sep 15
Last Quarter
Sep 24
New

Today's Extremes

State Highs State Lows

Community

WunderPhotos

Upload Photos

1,748,106 photos uploaded!

Nearby

Air Quality

  Air Quality AQ Index Pollutant
Yesterday Good
PM10
Current Good
PM2.5
Thursday Good
OZONE
Friday Good
OZONE

Snow Depth

Station Depth Elevation
No new snow has been reported.

Earthquake Activity

City Distance Mag. Time & Date
No recent earthquake activity has been reported nearby.
Minimum magnitude displayed is 2.5.

Coastal Water Temperatures

Place Temperature
No Stations Reporting

Nearby Weather Stations